Time;durP1;ratioP1;P1;durP2;ratioP2;P2;SDS_P1;SDS_P2;PMS_P1;PMS_P2;Temp;Humidity;BMP_temperature;BMP_pressure;BME280_temperature;BME280_humidity;BME280_pressure;Samples;Min_cycle;Max_cycle;Signal;HPM_P1;HPM_P2
2022/05/08 00:01:35;;;;;;;0.30;0.30;;;;;;;7.80;85.39;100536.47;5103591;28;20082;-77
2022/05/08 00:04:02;;;;;;;0.10;0.10;;;;;;;7.75;85.03;100541.94;5103245;28;20044;-77
2022/05/08 00:06:27;;;;;;;0.38;0.30;;;;;;;7.68;85.44;100539.44;5103429;28;20027;-77
2022/05/08 00:08:53;;;;;;;0.93;0.30;;;;;;;7.65;84.96;100542.72;5096732;28;20073;-77
2022/05/08 00:11:19;;;;;;;0.50;0.50;;;;;;;7.62;85.19;100551.41;5100795;28;20031;-77
2022/05/08 00:13:45;;;;;;;1.00;0.40;;;;;;;7.58;85.41;100555.75;5112575;28;20036;-78
2022/05/08 00:16:11;;;;;;;0.40;0.30;;;;;;;7.51;85.34;100553.25;5098971;28;20494;-77
2022/05/08 00:18:37;;;;;;;2.03;0.35;;;;;;;7.50;85.18;100559.00;5098480;28;20092;-77
2022/05/08 00:21:02;;;;;;;0.30;0.20;;;;;;;7.52;85.00;100568.56;5101636;28;20031;-77
2022/05/08 00:23:28;;;;;;;0.30;0.20;;;;;;;7.54;85.32;100574.56;5103937;28;20067;-77
2022/05/08 00:25:55;;;;;;;0.20;0.20;;;;;;;7.58;84.74;100574.88;5095529;28;20039;-77
2022/05/08 00:28:21;;;;;;;0.85;0.40;;;;;;;7.59;84.98;100586.63;5095680;28;20048;-78
2022/05/08 00:30:47;;;;;;;0.20;0.20;;;;;;;7.54;84.92;100584.69;5092225;28;20053;-78
2022/05/08 00:33:12;;;;;;;0.10;0.10;;;;;;;7.45;83.86;100587.06;5093403;28;20521;-78
2022/05/08 00:35:38;;;;;;;0.20;0.20;;;;;;;7.33;83.28;100591.06;5098678;28;20040;-78
2022/05/08 00:38:04;;;;;;;0.22;0.20;;;;;;;7.29;82.19;100600.84;5111964;28;20043;-78
2022/05/08 00:40:35;;;;;;;0.15;0.15;;;;;;;7.23;82.16;100605.44;5111106;28;20118;-78
2022/05/08 00:43:40;;;;;;;0.10;0.10;;;;;;;7.17;81.78;100614.69;5103429;28;20581;-78
2022/05/08 00:46:11;;;;;;;0.45;0.45;;;;;;;7.08;81.11;100632.59;5097016;28;20506;-78
2022/05/08 00:48:37;;;;;;;0.20;0.20;;;;;;;6.99;80.14;100628.69;5108611;28;20039;-78
2022/05/08 00:51:12;;;;;;;0.13;0.13;;;;;;;6.90;79.60;100628.31;5091001;28;20093;-78
2022/05/08 00:53:42;;;;;;;0.20;0.20;;;;;;;6.82;79.53;100635.06;5093981;28;20050;-78
2022/05/08 00:56:10;;;;;;;0.30;0.30;;;;;;;6.76;79.43;100644.25;5094629;28;20044;-78
2022/05/08 00:58:37;;;;;;;0.85;0.30;;;;;;;6.71;78.87;100657.84;5109055;28;20061;-78
2022/05/08 01:01:04;;;;;;;0.40;0.32;;;;;;;6.61;78.37;100653.13;5103066;28;20101;-78
2022/05/08 01:03:30;;;;;;;0.47;0.40;;;;;;;6.54;78.18;100657.91;5098158;28;20405;-78
2022/05/08 01:05:56;;;;;;;0.47;0.32;;;;;;;6.51;78.76;100669.34;5095999;28;20036;-78
2022/05/08 01:08:23;;;;;;;0.38;0.38;;;;;;;6.47;78.26;100672.81;5092655;28;20064;-78
2022/05/08 01:10:53;;;;;;;0.32;0.30;;;;;;;6.39;78.55;100665.06;5098453;28;20043;-78
2022/05/08 01:13:19;;;;;;;0.40;0.40;;;;;;;6.33;78.64;100669.66;5099329;28;20027;-78
2022/05/08 01:15:48;;;;;;;0.43;0.40;;;;;;;6.24;79.09;100668.41;5109264;28;20412;-78
2022/05/08 01:18:15;;;;;;;1.65;0.40;;;;;;;6.18;78.75;100670.25;5101007;28;20086;-78
2022/05/08 01:20:42;;;;;;;0.57;0.40;;;;;;;6.11;78.66;100683.25;5107470;28;20567;-78
2022/05/08 01:23:08;;;;;;;0.55;0.50;;;;;;;6.10;78.87;100684.31;5079681;28;20512;-78
2022/05/08 01:25:34;;;;;;;0.60;0.43;;;;;;;6.07;79.03;100681.25;5092023;28;20559;-78
2022/05/08 01:28:05;;;;;;;1.65;0.40;;;;;;;6.02;78.64;100688.28;5091470;28;20040;-78
2022/05/08 01:30:32;;;;;;;0.40;0.40;;;;;;;5.99;78.71;100693.41;5093000;28;20073;-78
2022/05/08 01:33:00;;;;;;;1.85;0.40;;;;;;;5.98;78.54;100699.94;5102676;28;20126;-78
2022/05/08 01:35:26;;;;;;;0.93;0.57;;;;;;;5.96;78.89;100699.34;5107375;28;20531;-78
2022/05/08 01:37:51;;;;;;;0.40;0.40;;;;;;;5.91;78.79;100697.38;5111814;28;20039;-78
2022/05/08 01:40:20;;;;;;;0.80;0.40;;;;;;;5.86;78.45;100686.38;5110974;28;20035;-78
2022/05/08 01:42:45;;;;;;;0.65;0.40;;;;;;;5.83;78.85;100688.78;5105370;28;20062;-78
2022/05/08 01:45:12;;;;;;;0.40;0.40;;;;;;;5.78;78.91;100702.31;5111866;28;20043;-78
2022/05/08 01:50:25;;;;;;;0.70;0.50;;;;;;;5.73;79.45;100711.22;5075999;28;20143;-78
2022/05/08 01:52:51;;;;;;;0.40;0.40;;;;;;;5.71;79.15;100708.72;5091759;28;20413;-78
2022/05/08 01:55:17;;;;;;;0.47;0.47;;;;;;;5.69;78.73;100713.59;5099356;28;20069;-79
2022/05/08 01:57:44;;;;;;;0.40;0.40;;;;;;;5.71;79.05;100710.63;5111801;28;20063;-78
2022/05/08 02:00:10;;;;;;;0.50;0.40;;;;;;;5.69;78.79;100712.78;5093838;28;20383;-79
2022/05/08 02:02:43;;;;;;;0.68;0.40;;;;;;;5.67;78.98;100712.19;5095253;28;20040;-78
2022/05/08 02:05:09;;;;;;;0.65;0.47;;;;;;;5.67;78.96;100713.03;5113924;27;20028;-78
2022/05/08 02:07:34;;;;;;;1.85;0.80;;;;;;;5.64;78.43;100724.41;5073393;28;20039;-79
2022/05/08 02:10:00;;;;;;;3.97;0.82;;;;;;;5.63;78.06;100727.38;5090904;28;20040;-79
2022/05/08 02:12:26;;;;;;;2.40;0.82;;;;;;;5.61;78.00;100734.97;5074970;28;20077;-79
2022/05/08 02:14:53;;;;;;;1.20;0.63;;;;;;;5.58;77.82;100732.75;5079454;28;20498;-80
2022/05/08 02:17:19;;;;;;;2.20;0.68;;;;;;;5.57;77.92;100734.66;5108926;28;20059;-79
2022/05/08 02:19:45;;;;;;;0.80;0.70;;;;;;;5.58;78.20;100741.75;5090789;28;20496;-79
2022/05/08 02:22:10;;;;;;;4.88;0.70;;;;;;;5.59;78.43;100739.84;5093429;28;20505;-79
2022/05/08 02:24:36;;;;;;;0.73;0.60;;;;;;;5.56;78.17;100748.50;5110329;28;20157;-79
2022/05/08 02:27:01;;;;;;;0.93;0.60;;;;;;;5.56;78.32;100752.06;5110877;28;20549;-79
2022/05/08 02:29:27;;;;;;;1.30;0.60;;;;;;;5.57;78.27;100739.25;5107571;28;20488;-79
2022/05/08 02:31:53;;;;;;;0.95;0.77;;;;;;;5.55;78.40;100747.66;5097536;28;20043;-79
2022/05/08 02:34:18;;;;;;;0.95;0.55;;;;;;;5.51;78.88;100749.22;5099909;28;20044;-79
2022/05/08 02:36:44;;;;;;;0.60;0.50;;;;;;;5.46;78.43;100754.56;5111419;28;20391;-79
2022/05/08 02:39:10;;;;;;;1.00;0.60;;;;;;;5.44;79.06;100762.16;5101884;28;20188;-79
2022/05/08 02:41:35;;;;;;;0.95;0.50;;;;;;;5.45;79.04;100764.63;5093704;28;20131;-79
2022/05/08 02:44:07;;;;;;;0.30;0.30;;;;;;;5.44;78.88;100764.88;5090099;28;20047;-80
2022/05/08 02:46:33;;;;;;;0.60;0.50;;;;;;;5.44;79.29;100773.03;5090762;28;20035;-78
2022/05/08 02:48:59;;;;;;;0.55;0.35;;;;;;;5.40;79.09;100771.88;5106268;28;20046;-79
2022/05/08 02:51:24;;;;;;;0.60;0.55;;;;;;;5.34;79.20;100778.28;5096193;28;20522;-79
2022/05/08 02:53:50;;;;;;;0.82;0.40;;;;;;;5.40;79.19;100771.88;5108764;28;20104;-79
2022/05/08 02:59:20;;;;;;;0.82;0.40;;;;;;;5.33;79.61;100785.63;5055374;28;20079;-78
2022/05/08 03:01:45;;;;;;;0.75;0.60;;;;;;;5.30;79.40;100791.56;5069282;28;20064;-78
2022/05/08 03:04:11;;;;;;;0.50;0.50;;;;;;;5.29;79.67;100802.69;5075404;28;20067;-79
2022/05/08 03:06:38;;;;;;;0.65;0.65;;;;;;;5.21;79.13;100803.09;5094670;28;20032;-79
2022/05/08 03:09:03;;;;;;;0.40;0.40;;;;;;;5.22;79.29;100808.28;5094510;28;20032;-79
2022/05/08 03:11:29;;;;;;;0.82;0.43;;;;;;;5.30;78.89;100804.34;5102308;27;20047;-79
2022/05/08 03:13:57;;;;;;;0.52;0.32;;;;;;;5.28;78.71;100803.75;5101071;28;20062;-79
2022/05/08 03:16:22;;;;;;;0.85;0.65;;;;;;;5.29;78.24;100808.94;5102720;28;20036;-79
2022/05/08 03:18:49;;;;;;;0.70;0.55;;;;;;;5.26;78.32;100804.00;5098533;28;20039;-79
2022/05/08 03:21:15;;;;;;;0.90;0.50;;;;;;;5.22;78.00;100810.16;5093062;28;20036;-79
2022/05/08 03:23:43;;;;;;;1.98;0.60;;;;;;;5.26;78.06;100806.72;5111035;28;20044;-79
2022/05/08 03:26:08;;;;;;;0.52;0.50;;;;;;;5.29;78.20;100814.41;5110716;28;20133;-79
2022/05/08 03:28:35;;;;;;;2.80;0.60;;;;;;;5.29;78.18;100819.00;5096888;28;20418;-79
2022/05/08 03:31:01;;;;;;;0.85;0.82;;;;;;;5.33;78.57;100831.06;5106154;28;20036;-79
2022/05/08 03:33:28;;;;;;;0.50;0.50;;;;;;;5.36;78.64;100830.56;5109677;27;20028;-79
2022/05/08 03:35:53;;;;;;;1.63;0.75;;;;;;;5.36;78.29;100833.28;5132664;27;20039;-79
2022/05/08 03:38:19;;;;;;;0.93;0.60;;;;;;;5.38;78.57;100833.88;5117197;27;20039;-79
2022/05/08 03:40:44;;;;;;;1.92;0.93;;;;;;;5.42;79.04;100835.06;5113584;28;20176;-79
2022/05/08 03:43:10;;;;;;;1.40;1.02;;;;;;;5.50;78.96;100842.81;5112680;28;20501;-80
2022/05/08 03:45:36;;;;;;;1.25;0.70;;;;;;;5.52;78.82;100840.69;5114432;28;20538;-79
2022/05/08 03:48:02;;;;;;;1.30;0.88;;;;;;;5.51;78.37;100849.09;5094813;28;20032;-80
2022/05/08 03:50:28;;;;;;;1.05;0.68;;;;;;;5.53;78.29;100850.50;5104135;28;20082;-79
2022/05/08 03:52:54;;;;;;;0.82;0.73;;;;;;;5.52;78.02;100854.28;5107430;28;20066;-79
2022/05/08 03:55:20;;;;;;;2.50;0.80;;;;;;;5.48;78.31;100853.13;5096380;28;20031;-79
2022/05/08 03:57:46;;;;;;;1.40;0.73;;;;;;;5.40;78.55;100857.06;5093137;28;20047;-79
2022/05/08 04:00:13;;;;;;;0.98;0.80;;;;;;;5.33;78.36;100855.53;5098267;27;20631;-79
2022/05/08 04:02:39;;;;;;;1.95;0.77;;;;;;;5.32;78.47;100859.34;5097335;27;20036;-79
2022/05/08 04:05:06;;;;;;;2.80;1.00;;;;;;;5.29;78.31;100865.25;5104159;27;20051;-79
2022/05/08 04:07:32;;;;;;;1.85;1.20;;;;;;;5.23;78.14;100868.97;5093750;28;20494;-78
2022/05/08 04:09:58;;;;;;;1.02;0.90;;;;;;;5.25;78.20;100873.09;5086420;28;20051;-78
2022/05/08 04:12:24;;;;;;;0.98;0.82;;;;;;;5.24;77.82;100871.44;5101694;28;20046;-77
2022/05/08 04:14:50;;;;;;;1.08;1.00;;;;;;;5.22;78.11;100889.06;5095988;28;20551;-76
2022/05/08 04:17:16;;;;;;;2.35;1.10;;;;;;;5.18;78.16;100893.31;5109792;28;20052;-78
2022/05/08 04:19:43;;;;;;;1.48;0.85;;;;;;;5.12;78.04;100892.38;5094125;28;20044;-76
2022/05/08 04:24:53;;;;;;;1.90;1.08;;;;;;;5.14;77.84;100888.34;5096945;28;20088;-77
2022/05/08 04:27:22;;;;;;;1.33;1.00;;;;;;;5.14;78.32;100891.06;5111143;28;20060;-77
2022/05/08 04:29:47;;;;;;;1.10;1.00;;;;;;;5.15;77.98;100895.44;5102324;28;20042;-77
2022/05/08 04:32:13;;;;;;;1.80;1.10;;;;;;;5.22;78.40;100897.22;5111532;28;20085;-77
2022/05/08 04:34:38;;;;;;;1.95;1.00;;;;;;;5.22;78.59;100902.66;5097013;28;20044;-76
2022/05/08 04:37:04;;;;;;;2.15;1.10;;;;;;;5.23;79.06;100901.59;5103707;27;20067;-80
2022/05/08 04:39:30;;;;;;;2.55;1.08;;;;;;;5.28;78.31;100904.41;5098908;27;20481;-77
2022/05/08 04:41:55;;;;;;;3.90;1.08;;;;;;;5.39;78.30;100906.31;5061793;28;20043;-77
2022/05/08 04:44:21;;;;;;;1.42;0.98;;;;;;;5.40;78.70;100900.63;5106331;27;20043;-76
2022/05/08 04:46:47;;;;;;;2.33;1.00;;;;;;;5.56;78.18;100899.03;5100353;28;20050;-75
2022/05/08 04:49:13;;;;;;;2.15;1.00;;;;;;;5.65;78.65;100903.00;5119607;27;20036;-74
2022/05/08 04:51:38;;;;;;;0.80;0.80;;;;;;;5.67;78.73;100908.22;5097979;28;20044;-74
2022/05/08 04:54:04;;;;;;;2.67;1.50;;;;;;;5.62;78.50;100906.22;5113701;27;20070;-75
2022/05/08 04:56:30;;;;;;;2.05;1.70;;;;;;;5.58;78.53;100904.25;5094604;28;20048;-74
2022/05/08 04:58:56;;;;;;;1.92;1.48;;;;;;;5.56;77.97;100904.47;5106568;28;20031;-75
2022/05/08 05:01:22;;;;;;;1.80;1.50;;;;;;;5.54;77.95;100908.47;5095622;28;20040;-76
2022/05/08 05:03:48;;;;;;;2.97;1.70;;;;;;;5.50;78.12;100913.59;5102071;28;20052;-76
2022/05/08 05:06:14;;;;;;;5.28;1.83;;;;;;;5.44;77.75;100920.00;5093645;28;20139;-74
2022/05/08 05:08:39;;;;;;;1.98;1.55;;;;;;;5.40;78.19;100929.72;5098389;28;20110;-76
2022/05/08 05:11:08;;;;;;;2.92;1.30;;;;;;;5.37;77.66;100927.47;5101372;28;20035;-75
2022/05/08 05:13:37;;;;;;;2.25;1.48;;;;;;;5.39;78.34;100925.34;5103621;28;20036;-75
2022/05/08 05:16:03;;;;;;;2.25;1.38;;;;;;;5.40;78.08;100924.28;5112516;28;20057;-76
2022/05/08 05:18:29;;;;;;;1.50;1.40;;;;;;;5.37;78.15;100938.34;5104142;28;20030;-76
2022/05/08 05:20:55;;;;;;;3.17;1.60;;;;;;;5.32;78.36;100936.34;5111074;28;20079;-76
2022/05/08 05:23:20;;;;;;;1.98;1.63;;;;;;;5.32;78.80;100938.25;5112431;28;20597;-75
2022/05/08 05:25:46;;;;;;;1.65;1.50;;;;;;;5.31;78.73;100936.59;5097522;28;20532;-76
2022/05/08 05:28:12;;;;;;;2.05;1.70;;;;;;;5.32;78.68;100936.34;5091879;28;20429;-75
2022/05/08 05:30:37;;;;;;;2.50;1.60;;;;;;;5.38;78.70;100937.28;5110556;28;20069;-76
2022/05/08 05:33:03;;;;;;;1.73;1.30;;;;;;;5.42;78.39;100938.47;5092367;28;20089;-76
2022/05/08 05:35:29;;;;;;;1.98;1.30;;;;;;;5.46;78.40;100942.38;5092216;28;20036;-75
2022/05/08 05:37:54;;;;;;;2.05;1.50;;;;;;;5.46;78.71;100939.63;5091808;28;20073;-75
2022/05/08 05:40:20;;;;;;;2.00;1.45;;;;;;;5.48;78.81;100945.66;5102367;28;20032;-75
2022/05/08 05:42:47;;;;;;;2.45;1.25;;;;;;;5.53;78.63;100943.03;5110963;28;20039;-76
2022/05/08 05:45:12;;;;;;;1.48;1.17;;;;;;;5.54;78.70;100946.59;5110813;28;20563;-75
2022/05/08 05:47:50;;;;;;;1.75;1.10;;;;;;;5.53;78.61;100950.38;5091624;28;20039;-75
2022/05/08 05:50:17;;;;;;;1.42;1.10;;;;;;;5.57;78.46;100952.41;5093205;28;20563;-74
2022/05/08 05:52:43;;;;;;;3.28;1.20;;;;;;;5.64;78.96;100947.63;5091913;28;20113;-74
2022/05/08 05:55:09;;;;;;;1.35;1.15;;;;;;;5.66;78.57;100945.50;5091229;28;20039;-75
2022/05/08 05:57:35;;;;;;;2.15;1.00;;;;;;;5.67;78.09;100943.59;5089549;28;20494;-74
2022/05/08 06:00:03;;;;;;;3.22;0.90;;;;;;;5.66;78.54;100956.41;5091906;28;20048;-74
2022/05/08 06:02:39;;;;;;;2.88;1.08;;;;;;;5.62;77.87;100965.28;5091612;28;20490;-74
2022/05/08 06:05:06;;;;;;;2.38;1.40;;;;;;;5.62;78.16;100959.84;5091974;28;20036;-74
2022/05/08 06:07:33;;;;;;;1.98;1.40;;;;;;;5.63;77.96;100961.50;5092738;28;20043;-74
2022/05/08 06:09:59;;;;;;;2.20;1.77;;;;;;;5.68;78.49;100970.59;5091502;28;20040;-74
2022/05/08 06:12:30;;;;;;;2.67;1.40;;;;;;;5.76;78.42;100963.97;5092275;28;20050;-74
2022/05/08 06:14:55;;;;;;;2.08;1.17;;;;;;;5.78;78.09;100964.53;5095148;28;20410;-74
2022/05/08 06:17:21;;;;;;;2.88;1.10;;;;;;;5.91;78.17;100967.03;5093897;28;20047;-74
2022/05/08 06:19:46;;;;;;;2.15;1.10;;;;;;;5.94;77.72;100971.16;5097172;28;20577;-74
2022/05/08 06:22:12;;;;;;;2.85;1.50;;;;;;;6.12;77.63;100975.59;5091525;28;20154;-74
2022/05/08 06:24:40;;;;;;;3.75;1.40;;;;;;;6.16;77.39;100980.28;5091884;28;20437;-74
2022/05/08 06:27:06;;;;;;;5.43;2.60;;;;;;;6.08;76.90;100979.88;5092357;28;20044;-74
2022/05/08 06:29:32;;;;;;;1.25;1.08;;;;;;;6.02;76.85;100981.66;5091759;28;20093;-74
2022/05/08 06:31:58;;;;;;;1.58;0.88;;;;;;;6.08;76.03;100991.59;5092690;28;20047;-74
2022/05/08 06:34:24;;;;;;;3.83;0.90;;;;;;;6.16;76.41;100993.91;5093523;28;20036;-74
2022/05/08 06:36:49;;;;;;;0.80;0.70;;;;;;;6.20;75.63;100991.53;5091508;28;20039;-75
2022/05/08 06:39:15;;;;;;;2.45;0.80;;;;;;;6.16;75.69;101002.09;5091242;28;20135;-75
2022/05/08 06:41:41;;;;;;;1.25;0.80;;;;;;;6.22;76.11;100987.47;5109314;28;20044;-75
2022/05/08 06:44:07;;;;;;;2.30;0.90;;;;;;;6.23;75.21;100996.47;5093586;28;20032;-75
2022/05/08 06:46:35;;;;;;;1.38;1.00;;;;;;;6.25;75.75;100997.91;5096341;28;20089;-75
2022/05/08 06:49:02;;;;;;;0.90;0.90;;;;;;;6.27;75.93;101003.94;5091881;28;20619;-75
2022/05/08 06:51:28;;;;;;;1.20;0.90;;;;;;;6.38;75.77;101004.13;5111411;28;20069;-75
2022/05/08 06:53:53;;;;;;;1.67;1.00;;;;;;;6.45;76.06;101010.28;5100804;28;20047;-75
2022/05/08 06:56:19;;;;;;;2.67;1.35;;;;;;;6.48;75.56;101001.59;5101140;28;20501;-76
2022/05/08 07:01:35;;;;;;;3.33;1.15;;;;;;;6.56;74.05;101012.09;5090792;28;20067;-75
2022/05/08 07:04:05;;;;;;;2.30;1.55;;;;;;;6.58;74.51;101012.66;5090771;28;20040;-75
2022/05/08 07:06:30;;;;;;;2.88;1.65;;;;;;;6.62;73.79;101011.13;5099595;28;20421;-76
2022/05/08 07:08:57;;;;;;;1.55;1.30;;;;;;;6.79;73.61;101019.31;5093859;28;20036;-76
2022/05/08 07:11:23;;;;;;;1.33;1.20;;;;;;;6.88;73.06;101013.19;5093132;28;20043;-76
2022/05/08 07:13:48;;;;;;;1.30;1.10;;;;;;;7.06;73.08;101014.84;5094681;28;20040;-76
2022/05/08 07:16:14;;;;;;;2.90;1.48;;;;;;;7.29;72.91;101013.84;5090659;28;20131;-76
2022/05/08 07:18:39;;;;;;;1.30;1.13;;;;;;;7.46;72.73;101028.31;5104127;28;20429;-76
2022/05/08 07:21:05;;;;;;;3.03;1.30;;;;;;;7.42;72.03;101024.41;5109006;28;20054;-76
2022/05/08 07:23:32;;;;;;;2.05;1.10;;;;;;;7.38;71.55;101023.25;5100763;28;20042;-76
2022/05/08 07:25:58;;;;;;;1.33;1.10;;;;;;;7.54;71.47;101018.84;5106870;28;20039;-77
2022/05/08 07:28:24;;;;;;;4.13;1.33;;;;;;;7.77;70.74;101021.34;5105506;28;20516;-77
2022/05/08 07:30:51;;;;;;;0.95;0.80;;;;;;;7.84;70.48;101026.63;5108352;28;20039;-77
2022/05/08 07:33:19;;;;;;;1.60;1.35;;;;;;;7.79;69.82;101024.66;5108770;28;20444;-76
2022/05/08 07:38:30;;;;;;;1.70;1.30;;;;;;;7.77;70.31;101039.63;5099027;28;20081;-77
2022/05/08 07:40:56;;;;;;;1.38;1.20;;;;;;;7.70;70.52;101033.53;5079574;28;20130;-76
2022/05/08 07:43:22;;;;;;;2.30;1.20;;;;;;;7.66;69.97;101044.16;5092774;28;20044;-77
2022/05/08 07:45:48;;;;;;;6.25;1.38;;;;;;;7.59;70.45;101040.75;5107465;27;20031;-77
2022/05/08 07:48:13;;;;;;;2.17;1.05;;;;;;;7.52;70.29;101051.88;5114116;27;20072;-77
2022/05/08 07:50:39;;;;;;;1.85;1.10;;;;;;;7.49;70.20;101048.81;5108318;28;20036;-77
2022/05/08 07:53:05;;;;;;;4.00;1.30;;;;;;;7.53;69.88;101047.22;5113239;27;20043;-76
2022/05/08 07:55:32;;;;;;;2.00;1.42;;;;;;;7.69;69.05;101045.56;5119723;27;20031;-76
2022/05/08 07:57:58;;;;;;;2.80;1.23;;;;;;;7.82;69.12;101051.47;5117256;27;20123;-76
2022/05/08 08:00:23;;;;;;;3.15;1.33;;;;;;;7.94;69.25;101050.50;5113193;28;20051;-76
2022/05/08 08:02:49;;;;;;;5.28;1.52;;;;;;;8.03;68.87;101051.75;5099555;28;20048;-76
2022/05/08 08:05:15;;;;;;;1.10;1.00;;;;;;;8.12;68.90;101052.94;5109713;28;20040;-77
2022/05/08 08:07:40;;;;;;;1.15;1.05;;;;;;;8.19;68.39;101052.75;5092795;28;20044;-77
2022/05/08 08:10:07;;;;;;;3.35;1.10;;;;;;;8.48;67.27;101067.88;5093680;28;20044;-77
2022/05/08 08:12:32;;;;;;;1.83;1.20;;;;;;;8.80;67.35;101061.63;5105190;28;20028;-77
2022/05/08 08:14:59;;;;;;;2.45;1.10;;;;;;;9.02;65.87;101070.59;5093034;28;20036;-77
2022/05/08 08:17:26;;;;;;;2.33;1.38;;;;;;;8.90;65.26;101069.97;5097044;28;20092;-77
2022/05/08 08:19:52;;;;;;;3.60;1.00;;;;;;;8.82;65.07;101082.19;5101928;28;20082;-77
2022/05/08 08:22:17;;;;;;;3.25;1.40;;;;;;;8.85;64.95;101083.56;5098676;28;20418;-77
2022/05/08 08:24:43;;;;;;;3.30;1.38;;;;;;;8.98;64.46;101085.91;5113892;28;20038;-77
2022/05/08 08:27:09;;;;;;;2.10;1.40;;;;;;;8.92;63.98;101098.72;5112371;28;20040;-76
2022/05/08 08:29:34;;;;;;;2.35;1.50;;;;;;;8.82;64.10;101092.31;5111514;28;20656;-76
2022/05/08 08:32:00;;;;;;;1.80;1.15;;;;;;;8.87;63.61;101089.63;5101701;28;20071;-77
2022/05/08 08:34:28;;;;;;;1.60;1.40;;;;;;;9.06;62.91;101093.66;5090414;28;20039;-74
2022/05/08 08:36:54;;;;;;;1.52;1.30;;;;;;;9.28;62.59;101091.66;5103903;28;20072;-76
2022/05/08 08:39:19;;;;;;;1.63;1.00;;;;;;;9.55;61.67;101091.59;5113462;27;20070;-77
2022/05/08 08:41:54;;;;;;;1.48;0.88;;;;;;;9.75;61.70;101090.91;5109020;28;20067;-77
2022/05/08 08:49:53;;;;;;;1.60;1.10;;;;;;;9.68;60.94;101093.84;5096927;28;20134;-77
2022/05/08 08:52:22;;;;;;;1.75;1.17;;;;;;;9.56;61.27;101090.50;5108765;27;20027;-76
2022/05/08 08:54:48;;;;;;;2.22;1.13;;;;;;;9.50;60.26;101086.06;5108346;28;20028;-77
2022/05/08 08:57:13;;;;;;;1.95;1.10;;;;;;;9.57;60.52;101099.53;5100769;28;20119;-77
2022/05/08 08:59:39;;;;;;;2.67;1.00;;;;;;;9.79;59.65;101100.22;5111184;27;20031;-78
2022/05/08 09:02:30;;;;;;;2.47;1.10;;;;;;;10.15;58.71;101103.16;5109070;28;20040;-77
2022/05/08 09:04:57;;;;;;;2.53;1.40;;;;;;;10.22;59.20;101092.78;5092001;28;20040;-77
2022/05/08 09:07:38;;;;;;;1.55;1.00;;;;;;;10.46;58.43;101096.75;5108377;28;20063;-77
2022/05/08 09:10:16;;;;;;;1.50;0.80;;;;;;;10.75;57.41;101099.84;5101990;28;20043;-77
2022/05/08 09:13:03;;;;;;;1.02;0.90;;;;;;;11.09;56.65;101099.34;5107878;28;20031;-77
2022/05/08 09:15:30;;;;;;;1.98;1.05;;;;;;;11.28;56.21;101105.13;5111739;28;20093;-77
2022/05/08 09:18:01;;;;;;;2.88;1.20;;;;;;;11.23;55.13;101105.13;5116182;27;20137;-80
2022/05/08 09:20:44;;;;;;;2.42;1.20;;;;;;;11.11;55.30;101098.00;5132097;27;20485;-80
2022/05/08 09:23:11;;;;;;;2.42;1.10;;;;;;;10.98;55.41;101109.50;5111561;27;20047;-79
2022/05/08 09:25:56;;;;;;;3.22;1.20;;;;;;;10.71;55.37;101108.88;5103163;28;20076;-79
2022/05/08 09:28:30;;;;;;;1.60;0.85;;;;;;;10.65;55.25;101115.47;5100163;28;20048;-80
2022/05/08 09:30:56;;;;;;;0.98;0.85;;;;;;;10.67;55.23;101118.75;5110811;28;20035;-78
2022/05/08 09:33:25;;;;;;;5.25;1.17;;;;;;;10.55;55.43;101124.47;5100353;28;20044;-83
2022/05/08 09:35:51;;;;;;;1.13;0.88;;;;;;;10.29;56.47;101129.06;5087842;28;20145;-79
2022/05/08 09:38:17;;;;;;;1.25;1.00;;;;;;;10.07;56.31;101120.13;5108490;28;20447;-81
2022/05/08 09:40:45;;;;;;;4.47;1.20;;;;;;;9.92;56.95;101123.63;5111128;28;20089;-81
2022/05/08 09:43:29;;;;;;;1.45;1.02;;;;;;;9.73;57.27;101138.84;5099023;28;20082;-81
2022/05/08 09:45:59;;;;;;;1.45;1.00;;;;;;;9.58;57.57;101132.16;5105104;28;20036;-80
2022/05/08 09:48:34;;;;;;;1.77;1.00;;;;;;;9.60;58.13;101129.16;5092904;28;20043;-84
2022/05/08 09:51:07;;;;;;;2.90;1.08;;;;;;;9.62;58.65;101130.53;5091508;28;20410;-78
2022/05/08 09:53:34;;;;;;;1.00;0.90;;;;;;;9.67;58.78;101133.31;5090540;28;20048;-76
2022/05/08 09:56:02;;;;;;;3.92;1.27;;;;;;;9.74;58.78;101124.88;5091070;28;20060;-74
2022/05/08 09:58:28;;;;;;;1.40;1.10;;;;;;;9.67;59.61;101132.47;5106479;28;20040;-76
2022/05/08 10:00:54;;;;;;;2.40;1.20;;;;;;;9.70;59.37;101133.84;5097772;28;20040;-75
2022/05/08 10:03:20;;;;;;;2.03;1.23;;;;;;;9.64;59.51;101133.84;5090248;28;20418;-74
2022/05/08 10:05:48;;;;;;;3.80;1.50;;;;;;;9.57;59.95;101130.50;5090398;28;20036;-75
2022/05/08 10:08:15;;;;;;;2.88;1.23;;;;;;;9.55;60.09;101126.38;5087824;28;20440;-79
2022/05/08 10:14:04;;;;;;;4.38;1.30;;;;;;;9.66;61.05;101131.66;5107777;28;20547;-77
2022/05/08 10:17:02;;;;;;;3.03;1.20;;;;;;;9.67;60.38;101137.97;5102840;28;20555;-77
2022/05/08 10:19:28;;;;;;;2.65;1.30;;;;;;;9.70;60.12;101137.44;5099951;28;20036;-77
2022/05/08 10:21:56;;;;;;;2.95;1.50;;;;;;;9.72;59.84;101127.06;5091468;28;20040;-77
2022/05/08 10:24:33;;;;;;;2.60;1.20;;;;;;;9.78;59.83;101139.69;5111190;28;20040;-77
2022/05/08 10:27:10;;;;;;;1.92;1.27;;;;;;;9.75;60.23;101142.97;5107940;28;20134;-77
2022/05/08 10:29:37;;;;;;;1.27;1.00;;;;;;;9.71;59.89;101130.03;5109471;28;20040;-77
2022/05/08 10:32:06;;;;;;;1.48;1.10;;;;;;;9.69;60.57;101141.25;5082006;28;20035;-77
2022/05/08 10:34:43;;;;;;;1.90;1.05;;;;;;;9.66;60.09;101137.13;5095622;28;20040;-78
2022/05/08 10:37:11;;;;;;;2.92;1.42;;;;;;;9.66;60.71;101142.63;5096724;28;20493;-77
2022/05/08 10:39:44;;;;;;;2.38;1.33;;;;;;;9.66;60.99;101139.03;5104900;28;20046;-78
2022/05/08 10:42:27;;;;;;;2.80;1.05;;;;;;;9.61;60.50;101144.50;5111455;28;20435;-78
2022/05/08 10:44:54;;;;;;;2.38;1.48;;;;;;;9.54;60.54;101149.34;5102060;28;20040;-78
2022/05/08 10:47:36;;;;;;;3.88;1.90;;;;;;;9.50;60.34;101143.59;5108159;28;20047;-79
2022/05/08 10:50:05;;;;;;;5.60;1.92;;;;;;;9.47;60.75;101163.28;5107530;28;20036;-79
2022/05/08 10:52:31;;;;;;;6.00;1.88;;;;;;;9.42;60.99;101157.78;5096796;28;20066;-78
2022/05/08 10:55:01;;;;;;;2.63;1.52;;;;;;;9.41;61.87;101172.56;5103599;28;20039;-78
2022/05/08 10:57:35;;;;;;;3.25;1.30;;;;;;;9.38;61.98;101167.59;5099438;28;20032;-79
2022/05/08 11:00:04;;;;;;;2.15;1.10;;;;;;;9.41;61.10;101174.47;5090854;28;20029;-79
2022/05/08 11:02:43;;;;;;;1.50;1.05;;;;;;;9.36;61.11;101175.22;5094756;28;20035;-79
2022/05/08 11:05:20;;;;;;;1.88;1.33;;;;;;;9.35;61.71;101176.31;5098400;28;20039;-80
2022/05/08 11:08:00;;;;;;;2.58;1.33;;;;;;;9.32;61.35;101191.34;5097333;28;20574;-79
2022/05/08 11:10:27;;;;;;;2.63;1.15;;;;;;;9.38;61.36;101194.16;5110940;28;20065;-79
2022/05/08 11:13:15;;;;;;;1.50;1.08;;;;;;;9.46;61.73;101201.91;5110108;28;20044;-78
2022/05/08 11:15:53;;;;;;;1.60;1.17;;;;;;;9.66;60.40;101204.81;5107237;27;20036;-78
2022/05/08 11:18:24;;;;;;;2.92;1.30;;;;;;;9.65;60.41;101214.94;5122723;27;20042;-78
2022/05/08 11:20:59;;;;;;;2.92;1.55;;;;;;;9.68;59.83;101224.56;5113197;27;20063;-79
2022/05/08 11:23:27;;;;;;;5.30;1.27;;;;;;;9.62;59.33;101218.22;5123605;27;20054;-79
2022/05/08 11:26:00;;;;;;;2.08;1.10;;;;;;;9.43;58.70;101225.16;5109952;28;20043;-79
2022/05/08 11:28:27;;;;;;;1.63;0.55;;;;;;;9.19;59.05;101230.09;5129882;27;20527;-79
2022/05/08 11:30:54;;;;;;;1.08;0.85;;;;;;;9.03;59.89;101228.31;5086916;27;20047;-78
2022/05/08 11:36:31;;;;;;;0.88;0.40;;;;;;;8.73;58.61;101276.09;5110266;27;20042;-80
2022/05/08 11:39:09;;;;;;;2.03;0.60;;;;;;;8.25;59.13;101267.72;5129261;27;20068;-81
2022/05/08 11:41:59;;;;;;;0.90;0.52;;;;;;;7.97;59.63;101288.59;5121097;27;20028;-82
2022/05/08 11:44:25;;;;;;;1.73;0.70;;;;;;;7.78;59.89;101279.78;5113636;27;20051;-85
2022/05/08 11:46:57;;;;;;;1.30;0.80;;;;;;;7.64;61.05;101288.56;5120809;27;20031;-86
2022/05/08 11:49:30;;;;;;;1.63;0.77;;;;;;;7.56;61.45;101285.16;5132919;27;20501;-84
2022/05/08 11:52:01;;;;;;;0.90;0.80;;;;;;;7.42;61.75;101297.44;5120625;27;20416;-86
2022/05/08 11:54:29;;;;;;;1.52;0.70;;;;;;;7.28;62.18;101293.34;5120491;27;20039;-83
2022/05/08 11:57:19;;;;;;;0.90;0.80;;;;;;;7.15;63.03;101307.28;5085178;28;20031;-84
2022/05/08 11:59:46;;;;;;;0.70;0.70;;;;;;;7.16;63.49;101314.41;5092397;28;20070;-84
2022/05/08 12:02:12;;;;;;;1.27;0.73;;;;;;;7.17;62.61;101325.09;5098332;27;20028;-82
2022/05/08 12:05:05;;;;;;;1.00;0.90;;;;;;;7.04;63.16;101322.63;5105979;27;20032;-82